Time;durP1;ratioP1;P1;durP2;ratioP2;P2;SDS_P1;SDS_P2;PMS_P1;PMS_P2;Temp;Humidity;BMP_temperature;BMP_pressure;BME280_temperature;BME280_humidity;BME280_pressure;Samples;Min_cycle;Max_cycle;Signal;HPM_P1;HPM_P2
2023/08/18 00:04:55;;;;;;;3.83;3.53;;;23.10;41.90;;;;;;10269236;28;20232;-71
2023/08/18 00:09:58;;;;;;;3.87;3.57;;;23.00;41.50;;;;;;10272131;28;20336;-71
2023/08/18 00:15:03;;;;;;;4.33;3.80;;;23.00;41.70;;;;;;10273241;28;20228;-71
2023/08/18 00:20:08;;;;;;;3.87;3.57;;;23.00;42.40;;;;;;10265917;28;20238;-71
2023/08/18 00:25:11;;;;;;;4.37;3.97;;;23.00;41.90;;;;;;10265366;28;20747;-71
2023/08/18 00:30:16;;;;;;;4.13;3.83;;;23.00;42.00;;;;;;10273460;28;20246;-70
2023/08/18 00:35:19;;;;;;;3.53;3.33;;;23.00;42.40;;;;;;10272465;28;20232;-70
2023/08/18 00:40:24;;;;;;;3.57;3.30;;;23.10;41.90;;;;;;10270060;28;20710;-71
2023/08/18 00:45:29;;;;;;;3.57;3.27;;;23.10;42.30;;;;;;10275434;28;20237;-71
2023/08/18 00:50:32;;;;;;;3.70;3.40;;;23.10;42.40;;;;;;10272451;28;20240;-70
2023/08/18 00:55:36;;;;;;;3.70;3.50;;;23.10;41.90;;;;;;10267911;28;20228;-71
2023/08/18 01:00:41;;;;;;;3.87;3.57;;;23.10;41.70;;;;;;10265848;28;20323;-71
2023/08/18 01:05:45;;;;;;;4.00;3.60;;;23.10;42.40;;;;;;10270304;28;20243;-70
2023/08/18 01:10:57;;;;;;;3.83;3.60;;;23.10;41.70;;;;;;10267025;28;20242;-71
2023/08/18 01:16:05;;;;;;;3.80;3.33;;;23.10;42.50;;;;;;10267614;28;20287;-70
2023/08/18 01:21:12;;;;;;;4.30;3.90;;;23.00;42.20;;;;;;10265377;28;20258;-71
2023/08/18 01:26:17;;;;;;;4.07;3.20;;;23.00;42.40;;;;;;10263999;28;20704;-71
2023/08/18 01:31:24;;;;;;;3.80;3.50;;;22.90;42.20;;;;;;10266915;28;20240;-70
2023/08/18 01:36:33;;;;;;;3.30;3.00;;;22.90;42.50;;;;;;10269106;28;20318;-71
2023/08/18 01:41:39;;;;;;;3.23;3.03;;;22.90;42.60;;;;;;10268671;28;20287;-70
2023/08/18 01:46:42;;;;;;;4.40;4.00;;;22.90;42.20;;;;;;10268610;28;20223;-71
2023/08/18 01:51:45;;;;;;;4.23;3.33;;;22.80;41.80;;;;;;10263997;28;20265;-71
2023/08/18 01:56:50;;;;;;;4.30;3.90;;;22.80;41.50;;;;;;10268577;28;20240;-71
2023/08/18 02:01:55;;;;;;;4.97;3.20;;;22.70;41.80;;;;;;10272546;28;20721;-71
2023/08/18 02:06:58;;;;;;;3.10;2.90;;;22.70;41.60;;;;;;10269652;28;22271;-71
2023/08/18 02:12:03;;;;;;;3.13;2.90;;;22.50;41.50;;;;;;10263865;28;20716;-71
2023/08/18 02:17:06;;;;;;;3.50;3.20;;;22.50;42.30;;;;;;10270195;28;20645;-70
2023/08/18 02:22:09;;;;;;;2.97;2.77;;;22.40;41.80;;;;;;10263032;28;20240;-71
2023/08/18 02:27:13;;;;;;;3.77;3.47;;;22.40;41.80;;;;;;10264015;28;20618;-71
2023/08/18 02:32:18;;;;;;;3.97;3.70;;;22.30;42.50;;;;;;10270095;28;20246;-71
2023/08/18 02:37:21;;;;;;;3.77;3.57;;;22.30;42.20;;;;;;10266664;28;20653;-71
2023/08/18 02:42:26;;;;;;;4.63;4.23;;;22.30;42.20;;;;;;10267491;28;20866;-71
2023/08/18 02:47:29;;;;;;;3.50;3.20;;;22.20;42.40;;;;;;10267881;28;20315;-71
2023/08/18 02:52:33;;;;;;;3.57;3.27;;;22.10;41.90;;;;;;10271679;28;20242;-71
2023/08/18 02:57:37;;;;;;;2.83;2.63;;;22.10;42.00;;;;;;10260264;28;20255;-71
2023/08/18 03:02:40;;;;;;;2.90;2.70;;;22.00;42.70;;;;;;10267006;28;20701;-71
2023/08/18 03:07:43;;;;;;;2.63;2.43;;;22.00;42.50;;;;;;10263591;28;20236;-71
2023/08/18 03:12:48;;;;;;;2.97;2.77;;;21.90;42.60;;;;;;10265938;28;20228;-71
2023/08/18 03:17:51;;;;;;;2.70;2.53;;;21.90;43.10;;;;;;10264602;28;20243;-71
2023/08/18 03:22:54;;;;;;;3.03;2.83;;;21.90;42.50;;;;;;10269153;28;20334;-70
2023/08/18 03:27:59;;;;;;;3.70;3.33;;;21.90;42.50;;;;;;10266319;28;20228;-71
2023/08/18 03:33:03;;;;;;;4.43;4.13;;;21.90;43.00;;;;;;10261536;28;20725;-71
2023/08/18 03:38:06;;;;;;;4.33;4.03;;;21.90;42.90;;;;;;10269562;28;20231;-71
2023/08/18 03:43:11;;;;;;;3.93;3.63;;;21.80;42.80;;;;;;10262694;28;20236;-71
2023/08/18 03:48:14;;;;;;;3.80;3.50;;;21.80;43.50;;;;;;10264695;28;20231;-71
2023/08/18 03:53:17;;;;;;;3.67;3.43;;;21.70;43.30;;;;;;10265198;28;20240;-70
2023/08/18 03:58:22;;;;;;;4.03;3.73;;;21.80;43.40;;;;;;10259212;28;20240;-71
2023/08/18 04:03:25;;;;;;;5.30;4.33;;;21.80;43.90;;;;;;10262760;28;20235;-72
2023/08/18 04:08:28;;;;;;;3.80;3.60;;;21.80;43.50;;;;;;10267313;28;20586;-71
2023/08/18 04:13:33;;;;;;;4.33;3.93;;;21.70;43.60;;;;;;10263435;28;20236;-70
2023/08/18 04:18:36;;;;;;;4.90;4.40;;;21.70;44.20;;;;;;10257309;28;20325;-71
2023/08/18 04:23:39;;;;;;;4.13;3.70;;;21.80;43.90;;;;;;10266097;28;20239;-70
2023/08/18 04:28:44;;;;;;;3.30;3.00;;;21.80;43.80;;;;;;10270272;28;20246;-71
2023/08/18 04:33:47;;;;;;;3.80;3.50;;;21.70;44.20;;;;;;10266984;28;20228;-70
2023/08/18 04:38:50;;;;;;;3.50;3.30;;;21.80;43.90;;;;;;10273564;28;20235;-71
2023/08/18 04:43:54;;;;;;;4.10;3.70;;;21.80;44.00;;;;;;10271395;28;20966;-71
2023/08/18 04:48:57;;;;;;;4.00;3.70;;;21.90;44.50;;;;;;10273283;28;20231;-71
2023/08/18 04:54:01;;;;;;;3.87;3.50;;;21.90;44.20;;;;;;10272281;28;20235;-71
2023/08/18 04:59:05;;;;;;;4.10;3.80;;;21.90;44.30;;;;;;10268866;28;20232;-71
2023/08/18 05:04:08;;;;;;;3.37;3.17;;;21.90;44.80;;;;;;10269973;28;20244;-71
2023/08/18 05:09:12;;;;;;;3.83;3.63;;;21.90;44.40;;;;;;10270665;28;20239;-70
2023/08/18 05:14:16;;;;;;;4.37;3.93;;;21.90;44.50;;;;;;10264376;28;20809;-71
2023/08/18 05:19:19;;;;;;;4.23;3.93;;;22.00;46.00;;;;;;10271865;28;20231;-70
2023/08/18 05:24:22;;;;;;;5.60;3.90;;;22.00;44.80;;;;;;10268783;28;20262;-70
2023/08/18 05:29:27;;;;;;;3.90;3.60;;;22.00;45.10;;;;;;10264712;28;20231;-70
2023/08/18 05:34:30;;;;;;;5.43;4.33;;;22.00;45.30;;;;;;10273193;28;20238;-70
2023/08/18 05:39:33;;;;;;;4.67;4.37;;;22.00;45.20;;;;;;10270165;28;20953;-70
2023/08/18 05:44:37;;;;;;;3.83;3.63;;;22.00;45.30;;;;;;10259010;28;20615;-70
2023/08/18 05:49:41;;;;;;;4.70;4.40;;;22.00;45.70;;;;;;10263290;28;20242;-71
2023/08/18 05:54:44;;;;;;;5.17;4.67;;;22.10;45.40;;;;;;10270189;28;20672;-71
2023/08/18 05:59:48;;;;;;;4.13;3.93;;;22.10;45.30;;;;;;10265146;28;20708;-71
2023/08/18 06:04:53;;;;;;;4.30;4.03;;;22.20;45.90;;;;;;10267456;28;20240;-71
2023/08/18 06:09:57;;;;;;;5.00;4.60;;;22.30;45.40;;;;;;10269977;28;20324;-70
2023/08/18 06:15:01;;;;;;;5.43;5.03;;;22.30;45.50;;;;;;10275473;28;20314;-71
2023/08/18 06:20:06;;;;;;;5.27;4.77;;;22.40;46.20;;;;;;10270700;28;20262;-70
2023/08/18 06:25:11;;;;;;;5.00;4.50;;;22.40;45.80;;;;;;10271095;28;20330;-70
2023/08/18 06:30:15;;;;;;;5.27;4.87;;;22.40;46.00;;;;;;10271079;28;20243;-71
2023/08/18 06:35:19;;;;;;;5.03;4.63;;;22.40;46.40;;;;;;10260441;28;20235;-70
2023/08/18 06:40:22;;;;;;;4.67;4.37;;;22.40;46.00;;;;;;10268958;28;20240;-70
2023/08/18 06:45:26;;;;;;;4.67;4.37;;;22.50;46.90;;;;;;10265520;28;20901;-71
2023/08/18 06:50:29;;;;;;;4.27;3.90;;;22.50;47.30;;;;;;10264709;28;20235;-71
2023/08/18 06:55:32;;;;;;;4.60;4.27;;;22.60;46.80;;;;;;10266822;28;20227;-71
2023/08/18 07:00:57;;;;;;;5.13;4.63;;;22.70;47.10;;;;;;10269796;28;20240;-71
2023/08/18 07:06:00;;;;;;;4.50;4.20;;;22.80;47.90;;;;;;10264706;28;20231;-71
2023/08/18 07:11:03;;;;;;;5.93;5.20;;;22.80;47.20;;;;;;10266870;28;20231;-71
2023/08/18 07:16:08;;;;;;;4.87;4.57;;;22.90;47.50;;;;;;10263409;28;20254;-71
2023/08/18 07:21:11;;;;;;;5.00;4.60;;;23.00;48.00;;;;;;10271133;28;20238;-71
2023/08/18 07:26:16;;;;;;;4.77;4.47;;;23.20;47.50;;;;;;10264046;28;20232;-71
2023/08/18 07:31:20;;;;;;;6.10;5.60;;;23.30;47.40;;;;;;10268680;28;20231;-71
2023/08/18 07:36:24;;;;;;;4.27;3.97;;;23.40;47.50;;;;;;10264819;28;20239;-71
2023/08/18 07:41:28;;;;;;;5.60;3.97;;;23.50;47.20;;;;;;10265843;28;20227;-71
2023/08/18 07:46:33;;;;;;;4.17;3.83;;;23.70;47.60;;;;;;10268114;28;20704;-71
2023/08/18 07:51:37;;;;;;;3.80;3.50;;;23.90;47.60;;;;;;10269431;28;20339;-71
2023/08/18 07:56:40;;;;;;;3.90;3.63;;;24.00;47.30;;;;;;10262641;28;20259;-71
2023/08/18 08:01:44;;;;;;;4.03;3.77;;;24.20;47.00;;;;;;10273653;28;20248;-71
2023/08/18 08:06:49;;;;;;;5.10;3.37;;;24.50;47.00;;;;;;10270253;28;20279;-71
2023/08/18 08:11:53;;;;;;;3.60;3.40;;;24.70;46.80;;;;;;10276773;28;20228;-71
2023/08/18 08:16:58;;;;;;;3.50;3.30;;;24.90;46.70;;;;;;10269107;28;20311;-71
2023/08/18 08:22:03;;;;;;;3.60;3.40;;;25.10;46.50;;;;;;10265278;28;20314;-70
2023/08/18 08:27:06;;;;;;;3.47;3.27;;;25.30;46.10;;;;;;10268197;28;20231;-71
2023/08/18 08:32:10;;;;;;;4.07;3.77;;;25.50;45.80;;;;;;10272033;28;20242;-71
2023/08/18 08:37:14;;;;;;;3.50;3.23;;;25.70;45.90;;;;;;10270549;28;20271;-71
2023/08/18 08:42:17;;;;;;;3.47;3.27;;;25.90;45.40;;;;;;10267210;28;20259;-71
2023/08/18 08:47:21;;;;;;;3.60;3.40;;;26.10;45.20;;;;;;10265854;28;20227;-71
2023/08/18 08:52:26;;;;;;;3.70;3.40;;;26.30;45.00;;;;;;10268137;28;20246;-71
2023/08/18 08:57:30;;;;;;;3.70;3.40;;;26.50;44.50;;;;;;10271884;28;21121;-71
2023/08/18 09:02:35;;;;;;;3.90;3.60;;;26.70;44.30;;;;;;10273626;28;20246;-71
2023/08/18 09:07:38;;;;;;;3.63;3.43;;;26.90;43.30;;;;;;10269215;28;20295;-71
2023/08/18 09:12:41;;;;;;;3.50;3.30;;;27.10;43.90;;;;;;10273171;28;20283;-71
2023/08/18 09:17:46;;;;;;;3.47;3.27;;;27.30;43.30;;;;;;10268392;28;20607;-71
2023/08/18 09:22:54;;;;;;;3.40;3.07;;;27.50;42.60;;;;;;10270010;28;20287;-71
2023/08/18 09:27:57;;;;;;;3.67;3.37;;;27.60;41.80;;;;;;10269047;28;20227;-71
2023/08/18 09:33:05;;;;;;;3.77;3.20;;;27.80;42.70;;;;;;10271561;28;20278;-71
2023/08/18 09:38:13;;;;;;;3.50;3.23;;;28.00;41.60;;;;;;10267716;28;20291;-71
2023/08/18 09:43:17;;;;;;;3.10;2.90;;;28.30;40.70;;;;;;10264332;28;20251;-71
2023/08/18 09:48:23;;;;;;;3.40;3.10;;;28.50;41.60;;;;;;10265578;28;20600;-71
2023/08/18 09:53:30;;;;;;;3.00;2.80;;;28.70;40.00;;;;;;10269190;28;20240;-71
2023/08/18 09:58:41;;;;;;;3.00;2.80;;;28.80;39.80;;;;;;10268729;28;20283;-71
2023/08/18 10:03:47;;;;;;;3.30;3.00;;;29.00;39.10;;;;;;10269130;28;20265;-71
2023/08/18 10:08:51;;;;;;;2.97;2.77;;;29.20;38.90;;;;;;10263306;28;20359;-71
2023/08/18 10:13:55;;;;;;;2.83;2.60;;;29.30;39.40;;;;;;10267679;28;20809;-71
2023/08/18 10:19:00;;;;;;;2.80;2.70;;;29.40;38.80;;;;;;10263606;28;20712;-71
2023/08/18 10:24:04;;;;;;;2.73;2.60;;;29.50;37.90;;;;;;10266461;28;20319;-71
2023/08/18 10:29:16;;;;;;;3.00;2.80;;;29.60;38.10;;;;;;10264124;28;20238;-71
2023/08/18 10:34:24;;;;;;;3.07;2.87;;;29.70;37.00;;;;;;10269059;28;20234;-71
2023/08/18 10:39:32;;;;;;;3.37;3.10;;;29.80;37.30;;;;;;10269396;28;20734;-71
2023/08/18 10:44:35;;;;;;;2.63;2.53;;;30.00;37.00;;;;;;10271601;28;20339;-71
2023/08/18 10:49:40;;;;;;;2.90;2.70;;;30.10;37.10;;;;;;10264775;28;20327;-71
2023/08/18 10:54:43;;;;;;;2.73;2.53;;;30.20;36.00;;;;;;10261716;28;20224;-71
2023/08/18 10:59:46;;;;;;;2.70;2.60;;;30.30;36.60;;;;;;10268299;28;20254;-71
2023/08/18 11:04:51;;;;;;;3.20;3.00;;;30.40;36.10;;;;;;10272138;28;20703;-71
2023/08/18 11:09:54;;;;;;;2.90;2.70;;;30.60;35.20;;;;;;10265588;28;20743;-71
2023/08/18 11:14:57;;;;;;;2.70;2.50;;;30.60;35.90;;;;;;10266235;28;20245;-71
2023/08/18 11:20:03;;;;;;;2.67;2.47;;;30.70;35.10;;;;;;10264638;28;20234;-71
2023/08/18 11:25:08;;;;;;;3.03;2.33;;;30.80;34.00;;;;;;10263268;28;20228;-71
2023/08/18 11:30:13;;;;;;;2.70;2.50;;;30.80;34.60;;;;;;10262567;28;20926;-71
2023/08/18 11:35:18;;;;;;;2.40;2.30;;;30.90;34.20;;;;;;10270056;28;20341;-71
2023/08/18 11:40:24;;;;;;;2.20;2.10;;;31.00;33.40;;;;;;10274906;28;20258;-71
2023/08/18 11:45:27;;;;;;;2.30;2.20;;;31.00;33.30;;;;;;10271059;28;20239;-71
2023/08/18 11:50:33;;;;;;;2.70;2.50;;;31.10;33.60;;;;;;10270936;28;20600;-71
2023/08/18 11:55:37;;;;;;;2.30;2.20;;;31.20;32.40;;;;;;10274914;28;20223;-71
2023/08/18 12:00:41;;;;;;;2.70;2.20;;;31.20;32.30;;;;;;10272710;28;20238;-70
2023/08/18 12:05:47;;;;;;;2.10;2.00;;;31.20;32.10;;;;;;10268339;28;20291;-71
2023/08/18 12:10:52;;;;;;;2.80;2.10;;;31.20;31.10;;;;;;10270409;28;20252;-71
2023/08/18 12:15:56;;;;;;;2.20;2.10;;;31.20;32.30;;;;;;10269887;28;20328;-71
2023/08/18 12:21:00;;;;;;;2.40;2.30;;;31.20;32.30;;;;;;10270707;28;20228;-71
2023/08/18 12:26:04;;;;;;;2.13;2.03;;;31.30;31.10;;;;;;10273726;28;20230;-71
2023/08/18 12:31:07;;;;;;;2.10;2.00;;;31.30;31.80;;;;;;10273857;28;20582;-71
2023/08/18 12:36:12;;;;;;;2.20;2.10;;;31.40;31.50;;;;;;10271005;28;20724;-71
2023/08/18 12:41:16;;;;;;;2.13;2.03;;;31.50;30.00;;;;;;10268909;28;20294;-71
2023/08/18 12:46:20;;;;;;;2.00;1.90;;;31.50;30.40;;;;;;10272670;28;20727;-71
2023/08/18 12:51:24;;;;;;;2.03;1.93;;;31.60;29.90;;;;;;10274456;28;20822;-71
2023/08/18 12:56:27;;;;;;;1.83;1.73;;;31.60;28.70;;;;;;10272553;28;20311;-71
2023/08/18 13:01:31;;;;;;;2.23;1.90;;;31.60;29.20;;;;;;10265569;28;20228;-71
2023/08/18 13:06:35;;;;;;;1.80;1.70;;;31.60;29.30;;;;;;10272730;28;20259;-70
2023/08/18 13:11:38;;;;;;;2.00;1.90;;;31.60;29.10;;;;;;10272139;28;20235;-71
2023/08/18 13:16:42;;;;;;;2.00;1.90;;;31.70;29.00;;;;;;10264400;28;20725;-71
2023/08/18 13:21:50;;;;;;;1.93;1.83;;;31.70;28.80;;;;;;10269845;28;20258;-71
2023/08/18 13:26:53;;;;;;;2.00;1.90;;;31.80;28.50;;;;;;10267922;28;20286;-71
2023/08/18 13:31:56;;;;;;;2.17;2.07;;;31.80;28.90;;;;;;10274124;28;20302;-71
2023/08/18 13:37:01;;;;;;;2.00;1.90;;;31.80;28.80;;;;;;10272319;28;20315;-71
2023/08/18 13:42:04;;;;;;;2.87;1.93;;;31.90;28.00;;;;;;10260642;28;20251;-71
2023/08/18 13:47:07;;;;;;;2.10;2.00;;;31.90;28.20;;;;;;10270389;28;20232;-71
2023/08/18 13:52:12;;;;;;;1.90;1.80;;;31.90;28.10;;;;;;10269134;28;20291;-71
2023/08/18 13:57:16;;;;;;;2.00;1.90;;;32.00;27.50;;;;;;10269598;28;20255;-71
2023/08/18 14:02:20;;;;;;;1.90;1.80;;;32.00;27.80;;;;;;10266944;28;20232;-71
2023/08/18 14:07:24;;;;;;;2.10;2.00;;;32.10;27.60;;;;;;10274409;28;20247;-71
2023/08/18 14:12:27;;;;;;;3.20;2.00;;;32.10;27.00;;;;;;10266959;28;20319;-71
2023/08/18 14:17:36;;;;;;;2.17;2.07;;;32.10;27.30;;;;;;10267779;28;20235;-71
2023/08/18 14:22:42;;;;;;;2.17;1.97;;;32.00;26.20;;;;;;10267193;28;20859;-71
2023/08/18 14:27:46;;;;;;;2.37;2.03;;;32.10;26.90;;;;;;10268046;28;20242;-71
2023/08/18 14:32:49;;;;;;;2.20;1.80;;;32.20;27.40;;;;;;10268017;28;20239;-71
2023/08/18 14:37:54;;;;;;;2.27;2.17;;;32.20;27.30;;;;;;10259641;28;20255;-71
2023/08/18 14:42:57;;;;;;;2.10;2.00;;;32.30;26.70;;;;;;10269261;28;20683;-70
2023/08/18 14:48:18;;;;;;;1.70;1.60;;;32.30;26.80;;;;;;10268233;28;20227;-70
2023/08/18 14:53:23;;;;;;;2.10;2.00;;;32.40;26.90;;;;;;10270740;28;20779;-70
2023/08/18 14:58:27;;;;;;;2.53;2.07;;;32.40;26.50;;;;;;10270146;28;20232;-71
2023/08/18 15:03:31;;;;;;;2.20;2.00;;;32.50;26.50;;;;;;10263173;28;20258;-71
2023/08/18 15:08:35;;;;;;;2.40;2.20;;;32.50;26.40;;;;;;10266507;28;20266;-71
2023/08/18 15:13:39;;;;;;;2.00;1.90;;;32.50;26.50;;;;;;10269944;28;20228;-71
2023/08/18 15:18:43;;;;;;;2.10;2.00;;;32.60;26.40;;;;;;10264862;28;20232;-70
2023/08/18 15:23:48;;;;;;;2.03;1.93;;;32.60;26.30;;;;;;10264489;28;20243;-70
2023/08/18 15:28:51;;;;;;;2.30;2.10;;;32.60;25.10;;;;;;10270406;28;20239;-71
2023/08/18 15:33:54;;;;;;;2.40;2.20;;;32.60;25.70;;;;;;10263800;28;20322;-71
2023/08/18 15:39:03;;;;;;;2.20;2.10;;;32.60;25.40;;;;;;10266887;28;20369;-70
2023/08/18 15:44:07;;;;;;;1.90;1.80;;;32.60;24.80;;;;;;10265394;28;20788;-70
2023/08/18 15:49:10;;;;;;;2.47;2.27;;;32.70;25.80;;;;;;10264474;28;20335;-70
2023/08/18 15:54:14;;;;;;;2.17;2.00;;;32.70;25.30;;;;;;10264147;28;20318;-70
2023/08/18 15:59:18;;;;;;;2.00;1.90;;;32.70;24.70;;;;;;10266516;28;20324;-70
2023/08/18 16:04:21;;;;;;;2.00;1.90;;;32.70;24.80;;;;;;10264594;28;20232;-71
2023/08/18 16:09:26;;;;;;;2.07;1.97;;;32.80;25.00;;;;;;10266811;28;20755;-71
2023/08/18 16:14:29;;;;;;;2.17;2.07;;;32.80;24.00;;;;;;10260393;28;20658;-71
2023/08/18 16:19:35;;;;;;;2.10;2.00;;;32.90;24.10;;;;;;10266487;28;20331;-71
2023/08/18 16:24:40;;;;;;;1.90;1.80;;;32.90;24.30;;;;;;10270882;28;20295;-71
2023/08/18 16:29:43;;;;;;;1.93;1.83;;;32.90;23.80;;;;;;10270765;28;20235;-70
2023/08/18 16:34:46;;;;;;;1.90;1.80;;;32.90;24.60;;;;;;10272166;28;20700;-71
2023/08/18 16:39:51;;;;;;;1.90;1.80;;;32.90;24.70;;;;;;10274688;28;20264;-71
2023/08/18 16:44:54;;;;;;;2.10;1.90;;;33.00;25.00;;;;;;10281142;28;20242;-71
2023/08/18 16:49:57;;;;;;;2.23;2.13;;;33.00;25.60;;;;;;10273546;28;20239;-71
2023/08/18 16:55:02;;;;;;;2.03;1.93;;;33.00;25.80;;;;;;10270736;28;20254;-71
2023/08/18 17:00:08;;;;;;;2.20;2.10;;;33.10;26.50;;;;;;10273678;28;20243;-70
2023/08/18 17:05:12;;;;;;;2.30;2.20;;;33.00;26.90;;;;;;10271704;28;20294;-71
2023/08/18 17:10:16;;;;;;;2.33;2.10;;;33.00;27.00;;;;;;10269546;28;20246;-70
2023/08/18 17:15:20;;;;;;;2.53;2.27;;;32.90;26.50;;;;;;10268539;28;20253;-70
2023/08/18 17:20:25;;;;;;;2.30;2.10;;;32.80;26.40;;;;;;10270482;28;20240;-70
2023/08/18 17:25:33;;;;;;;2.23;2.10;;;32.70;25.90;;;;;;10268589;28;20251;-71
2023/08/18 17:30:36;;;;;;;1.97;1.80;;;32.50;25.50;;;;;;10267707;28;20239;-71
2023/08/18 17:35:40;;;;;;;2.17;1.90;;;32.50;25.70;;;;;;10268924;28;20240;-71
2023/08/18 17:40:44;;;;;;;1.97;1.87;;;32.30;25.70;;;;;;10263916;28;20239;-70
2023/08/18 17:45:47;;;;;;;2.80;2.30;;;32.20;26.30;;;;;;10273149;28;20350;-70
2023/08/18 17:50:56;;;;;;;2.50;2.40;;;32.10;27.50;;;;;;10268625;28;20311;-70
2023/08/18 17:56:01;;;;;;;3.80;2.60;;;32.00;27.00;;;;;;10267885;28;20293;-71
2023/08/18 18:01:04;;;;;;;3.03;2.60;;;31.90;27.50;;;;;;10272112;28;20232;-71
2023/08/18 18:06:10;;;;;;;2.40;2.20;;;31.80;27.90;;;;;;10267581;28;20780;-70
2023/08/18 18:11:15;;;;;;;2.17;1.97;;;31.70;28.20;;;;;;10268706;28;20759;-70
2023/08/18 18:16:18;;;;;;;2.30;2.10;;;31.50;28.20;;;;;;10270462;28;20742;-70
2023/08/18 18:21:21;;;;;;;2.40;2.30;;;31.30;28.30;;;;;;10267018;28;20235;-71
2023/08/18 18:26:27;;;;;;;2.20;2.10;;;31.10;28.50;;;;;;10261978;28;20232;-71
2023/08/18 18:31:30;;;;;;;2.53;2.33;;;31.00;28.90;;;;;;10265930;28;20727;-70
2023/08/18 18:36:33;;;;;;;2.50;2.30;;;30.90;28.80;;;;;;10269406;28;20603;-70
2023/08/18 18:41:38;;;;;;;2.30;2.10;;;30.80;29.00;;;;;;10266176;28;20242;-70
2023/08/18 18:46:43;;;;;;;2.30;2.20;;;30.70;29.60;;;;;;10263385;28;20237;-70
2023/08/18 18:51:46;;;;;;;2.30;2.20;;;30.50;29.40;;;;;;10268300;28;20247;-70
2023/08/18 18:56:50;;;;;;;2.43;2.13;;;30.40;29.40;;;;;;10264735;28;20311;-70
2023/08/18 19:01:54;;;;;;;2.47;2.27;;;30.30;29.60;;;;;;10265434;28;20239;-70
2023/08/18 19:06:57;;;;;;;2.70;2.50;;;30.10;29.40;;;;;;10264133;28;20322;-70
2023/08/18 19:12:01;;;;;;;2.60;2.27;;;30.00;29.60;;;;;;10268287;28;20250;-71
2023/08/18 19:17:05;;;;;;;2.50;2.30;;;29.90;29.80;;;;;;10261906;28;20233;-70
2023/08/18 19:22:16;;;;;;;3.33;2.20;;;29.80;29.70;;;;;;10265532;28;20240;-70
2023/08/18 19:27:20;;;;;;;2.60;2.40;;;29.70;29.80;;;;;;10262903;28;20339;-70
2023/08/18 19:32:23;;;;;;;3.23;2.40;;;29.50;29.90;;;;;;10270463;28;20354;-70
2023/08/18 19:37:27;;;;;;;2.30;2.20;;;29.30;30.00;;;;;;10271136;28;20235;-71
2023/08/18 19:42:31;;;;;;;2.63;2.40;;;29.20;30.30;;;;;;10260407;28;20239;-70
2023/08/18 19:47:36;;;;;;;2.40;2.20;;;29.00;30.90;;;;;;10262043;28;20238;-70
2023/08/18 19:52:39;;;;;;;2.53;2.20;;;28.90;30.80;;;;;;10267196;28;20259;-70
2023/08/18 19:57:44;;;;;;;2.50;2.40;;;28.80;30.80;;;;;;10270701;28;20231;-70
2023/08/18 20:02:48;;;;;;;3.43;2.50;;;28.70;30.60;;;;;;10273746;28;20235;-70
2023/08/18 20:07:51;;;;;;;2.40;2.30;;;28.60;30.60;;;;;;10271761;28;20239;-70
2023/08/18 20:12:56;;;;;;;2.60;2.40;;;28.40;30.50;;;;;;10269865;28;20255;-70
2023/08/18 20:17:59;;;;;;;3.00;2.60;;;28.30;31.50;;;;;;10272437;28;20250;-70
2023/08/18 20:23:02;;;;;;;2.63;2.43;;;28.20;31.20;;;;;;10273557;28;20235;-70
2023/08/18 20:28:07;;;;;;;3.90;3.20;;;28.10;31.40;;;;;;10269775;28;20251;-71
2023/08/18 20:33:10;;;;;;;3.20;3.00;;;27.90;32.00;;;;;;10267984;28;20235;-70
2023/08/18 20:38:18;;;;;;;3.10;2.90;;;27.70;32.00;;;;;;10278048;28;20232;-70
2023/08/18 20:43:24;;;;;;;2.90;2.70;;;27.50;32.20;;;;;;10270274;28;20269;-70
2023/08/18 20:48:29;;;;;;;3.40;2.80;;;27.30;33.30;;;;;;10261698;28;20236;-70
2023/08/18 20:53:32;;;;;;;2.77;2.50;;;27.20;32.90;;;;;;10277591;28;20286;-70
2023/08/18 20:58:36;;;;;;;3.23;2.67;;;27.20;33.00;;;;;;10272822;28;20239;-70
2023/08/18 21:03:43;;;;;;;2.90;2.60;;;27.10;33.50;;;;;;10275310;28;20794;-70
2023/08/18 21:08:47;;;;;;;2.80;2.50;;;27.10;33.30;;;;;;10268822;28;20256;-70
2023/08/18 21:13:51;;;;;;;3.13;2.63;;;27.10;33.30;;;;;;10275668;28;20254;-70
2023/08/18 21:18:54;;;;;;;2.90;2.70;;;27.10;33.80;;;;;;10268348;28;20234;-70
2023/08/18 21:23:57;;;;;;;3.07;2.83;;;27.00;33.50;;;;;;10260026;28;20244;-70
2023/08/18 21:29:02;;;;;;;2.90;2.67;;;27.00;33.70;;;;;;10267038;28;20236;-71
2023/08/18 21:34:05;;;;;;;2.30;2.10;;;26.90;34.10;;;;;;10264708;28;20231;-70
2023/08/18 21:39:08;;;;;;;3.07;2.70;;;26.90;33.80;;;;;;10269833;28;20227;-70
2023/08/18 21:44:13;;;;;;;3.20;3.00;;;26.80;33.90;;;;;;10270131;28;20776;-71
2023/08/18 21:49:16;;;;;;;4.27;2.70;;;26.70;34.30;;;;;;10265419;28;20240;-70
2023/08/18 21:54:19;;;;;;;3.50;2.63;;;26.50;34.00;;;;;;10260151;28;20242;-70
2023/08/18 21:59:25;;;;;;;3.37;2.57;;;26.40;34.30;;;;;;10258808;28;20243;-70
2023/08/18 22:04:29;;;;;;;3.00;2.80;;;26.20;34.80;;;;;;10265904;28;20664;-70
2023/08/18 22:09:32;;;;;;;3.57;3.27;;;26.20;34.70;;;;;;10269842;28;20231;-70
2023/08/18 22:14:36;;;;;;;2.93;2.73;;;26.20;34.90;;;;;;10265421;28;20236;-70
2023/08/18 22:19:39;;;;;;;3.00;2.80;;;26.10;35.10;;;;;;10271396;28;20358;-71
2023/08/18 22:24:45;;;;;;;2.90;2.70;;;26.00;34.90;;;;;;10261132;28;20239;-70
2023/08/18 22:29:50;;;;;;;2.90;2.67;;;26.00;34.90;;;;;;10262589;28;20228;-70
2023/08/18 22:34:54;;;;;;;3.00;2.80;;;25.80;35.50;;;;;;10269342;28;20878;-71
2023/08/18 22:39:57;;;;;;;3.27;3.00;;;25.70;35.40;;;;;;10265473;28;20326;-70
2023/08/18 22:45:02;;;;;;;3.87;3.00;;;25.70;35.30;;;;;;10269119;28;20228;-70
2023/08/18 22:50:06;;;;;;;4.07;3.00;;;25.60;35.80;;;;;;10260526;28;20224;-71
2023/08/18 22:55:10;;;;;;;3.10;2.80;;;25.50;35.50;;;;;;10265802;28;20291;-70
2023/08/18 23:00:15;;;;;;;2.87;2.67;;;25.40;35.40;;;;;;10260096;28;20232;-71
2023/08/18 23:05:18;;;;;;;3.53;3.00;;;25.20;36.00;;;;;;10263846;28;20599;-70
2023/08/18 23:10:22;;;;;;;3.20;2.90;;;25.10;36.00;;;;;;10267160;28;20254;-70
2023/08/18 23:15:26;;;;;;;2.70;2.50;;;25.00;36.10;;;;;;10267941;28;20262;-70
2023/08/18 23:20:31;;;;;;;3.10;2.90;;;24.90;36.60;;;;;;10266186;28;20319;-70
2023/08/18 23:25:35;;;;;;;3.23;3.03;;;24.80;36.30;;;;;;10261923;28;20274;-70
2023/08/18 23:30:39;;;;;;;3.30;3.00;;;24.70;36.30;;;;;;10275739;28;20327;-71
2023/08/18 23:35:42;;;;;;;2.90;2.70;;;24.50;36.90;;;;;;10276896;28;20318;-70
2023/08/18 23:40:45;;;;;;;3.40;3.10;;;24.30;36.60;;;;;;10286927;28;20242;-70
2023/08/18 23:45:52;;;;;;;3.70;3.10;;;24.30;37.10;;;;;;10278284;28;20729;-70
2023/08/18 23:50:55;;;;;;;3.43;3.17;;;24.10;37.70;;;;;;10280012;28;20244;-70
2023/08/18 23:55:58;;;;;;;3.20;2.93;;;23.90;37.30;;;;;;10273496;28;20231;-70
